Time;durP1;ratioP1;P1;durP2;ratioP2;P2;SDS_P1;SDS_P2;PMS_P1;PMS_P2;Temp;Humidity;BMP_temperature;BMP_pressure;BME280_temperature;BME280_humidity;BME280_pressure;Samples;Min_cycle;Max_cycle;Signal;HPM_P1;HPM_P2
2024/01/15 00:01:59;;;;;;;20.65;6.75;;;;;;;-141.50;100.00;63355.56;5021569;28;20061;-77
2024/01/15 00:04:28;;;;;;;19.70;6.78;;;;;;;-141.50;100.00;63355.56;5034063;28;20595;-78
2024/01/15 00:06:55;;;;;;;21.63;7.63;;;;;;;-141.50;100.00;63355.56;5044617;28;20075;-77
2024/01/15 00:09:22;;;;;;;25.60;7.70;;;;;;;-141.50;100.00;63355.56;5042131;28;20504;-78
2024/01/15 00:11:50;;;;;;;22.25;7.65;;;;;;;-141.50;100.00;63355.56;5033736;28;20099;-78
2024/01/15 00:14:19;;;;;;;22.85;7.55;;;;;;;-141.50;100.00;63355.56;5040335;28;20115;-79
2024/01/15 00:16:49;;;;;;;25.40;6.70;;;;;;;-141.50;100.00;63355.56;5046967;28;20248;-78
2024/01/15 00:19:18;;;;;;;20.65;7.65;;;;;;;-141.50;100.00;63355.56;5048881;28;20049;-78
2024/01/15 00:21:45;;;;;;;23.08;7.78;;;;;;;-141.50;100.00;63355.56;5047562;28;20590;-78
2024/01/15 00:24:13;;;;;;;19.85;6.68;;;;;;;-141.50;100.00;63355.56;5047508;28;20041;-77
2024/01/15 00:26:43;;;;;;;26.52;8.82;;;;;;;-141.50;100.00;63355.56;5024201;28;20503;-78
2024/01/15 00:29:10;;;;;;;24.60;7.53;;;;;;;-141.50;100.00;63355.56;5049118;28;20884;-76
2024/01/15 00:31:37;;;;;;;21.50;7.47;;;;;;;-141.50;100.00;63355.56;5021997;28;20041;-79
2024/01/15 00:34:05;;;;;;;28.70;8.07;;;;;;;-141.50;100.00;63355.56;5049721;28;20091;-77
2024/01/15 00:36:32;;;;;;;21.63;7.40;;;;;;;-141.50;100.00;63355.56;5036089;28;20041;-76
2024/01/15 00:39:00;;;;;;;20.20;7.22;;;;;;;-141.50;100.00;63355.56;5041682;28;20052;-78
2024/01/15 00:41:27;;;;;;;22.52;7.10;;;;;;;-141.50;100.00;63355.56;5038415;28;20048;-77
2024/01/15 00:43:57;;;;;;;18.45;6.53;;;;;;;-141.50;100.00;63355.56;5032620;28;20056;-78
2024/01/15 00:46:29;;;;;;;24.50;7.75;;;;;;;-141.50;100.00;63355.56;5017418;28;20037;-78
2024/01/15 00:48:56;;;;;;;20.48;6.53;;;;;;;-141.50;100.00;63355.56;5034347;28;20120;-77
2024/01/15 00:51:23;;;;;;;21.75;6.90;;;;;;;-141.50;100.00;63355.56;5039571;28;20131;-77
2024/01/15 00:53:50;;;;;;;18.42;6.95;;;;;;;-141.50;100.00;63355.56;5041104;28;20097;-78
2024/01/15 00:56:17;;;;;;;19.80;7.30;;;;;;;-141.50;100.00;63355.56;5041786;28;20044;-77
2024/01/15 00:58:45;;;;;;;23.27;8.20;;;;;;;-141.50;100.00;63355.56;5020947;28;20041;-78
2024/01/15 01:01:12;;;;;;;22.88;8.18;;;;;;;-141.50;100.00;63355.56;5066294;28;20098;-79
2024/01/15 01:03:39;;;;;;;21.65;8.77;;;;;;;-141.50;100.00;63355.56;5041157;28;20056;-78
2024/01/15 01:06:07;;;;;;;23.65;7.95;;;;;;;-141.50;100.00;63355.56;5023085;28;20120;-78
2024/01/15 01:08:34;;;;;;;19.83;7.13;;;;;;;-141.50;100.00;63355.56;5035571;28;20053;-77
2024/01/15 01:11:02;;;;;;;24.08;7.65;;;;;;;-141.50;100.00;63355.56;5052293;28;20053;-76
2024/01/15 01:13:29;;;;;;;26.15;7.70;;;;;;;-141.50;100.00;63355.56;5040276;28;20066;-75
2024/01/15 01:15:59;;;;;;;19.73;7.55;;;;;;;-141.50;100.00;63355.56;5060539;28;20497;-76
2024/01/15 01:18:27;;;;;;;19.58;6.68;;;;;;;-141.50;100.00;63355.56;5052085;28;20033;-75
2024/01/15 01:20:54;;;;;;;24.70;7.90;;;;;;;-141.50;100.00;63355.56;5063310;28;20082;-76
2024/01/15 01:23:23;;;;;;;25.25;6.97;;;;;;;-141.50;100.00;63355.56;5042917;28;20045;-77
2024/01/15 01:25:50;;;;;;;23.65;8.05;;;;;;;-141.50;100.00;63355.56;5069246;28;20068;-79
2024/01/15 01:28:16;;;;;;;30.48;7.93;;;;;;;-141.50;100.00;63355.56;5041169;28;20120;-77
2024/01/15 01:30:50;;;;;;;26.48;8.27;;;;;;;-141.50;100.00;63355.56;5045611;28;20048;-79
2024/01/15 01:33:17;;;;;;;25.40;9.13;;;;;;;-141.50;100.00;63355.56;5047276;28;20077;-78
2024/01/15 01:35:46;;;;;;;25.70;8.65;;;;;;;-141.50;100.00;63355.56;5049396;28;20041;-78
2024/01/15 01:38:17;;;;;;;23.08;7.63;;;;;;;-141.50;100.00;63355.56;5052858;28;20087;-78
2024/01/15 01:40:44;;;;;;;25.05;7.68;;;;;;;-141.50;100.00;63355.56;5055563;28;20037;-78
2024/01/15 01:43:12;;;;;;;28.95;8.68;;;;;;;-141.50;100.00;63355.56;5045734;28;20072;-79
2024/01/15 01:45:43;;;;;;;25.80;8.63;;;;;;;-141.50;100.00;63355.56;5052726;28;20545;-79
2024/01/15 01:48:10;;;;;;;26.88;8.60;;;;;;;-141.50;100.00;63355.56;5053237;28;20053;-78
2024/01/15 01:50:38;;;;;;;24.58;8.95;;;;;;;-141.50;100.00;63355.56;5031643;28;20041;-78
2024/01/15 01:53:05;;;;;;;28.52;8.15;;;;;;;-141.50;100.00;63355.56;5050339;28;20083;-77
2024/01/15 01:55:33;;;;;;;28.70;8.70;;;;;;;-141.50;100.00;63355.56;5054568;28;20037;-80
2024/01/15 01:58:05;;;;;;;22.42;7.82;;;;;;;-141.50;100.00;63355.56;5038801;28;20110;-77
2024/01/15 02:00:36;;;;;;;28.20;8.65;;;;;;;-141.50;100.00;63355.56;5049705;28;20071;-78
2024/01/15 02:03:04;;;;;;;23.73;8.52;;;;;;;-141.50;100.00;63355.56;5046166;28;20057;-78
2024/01/15 02:05:35;;;;;;;24.27;9.15;;;;;;;-141.50;100.00;63355.56;5043574;28;20091;-77
2024/01/15 02:08:03;;;;;;;23.20;8.52;;;;;;;-141.50;100.00;63355.56;5046423;28;20511;-77
2024/01/15 02:10:33;;;;;;;31.48;8.73;;;;;;;-141.50;100.00;63355.56;5063838;28;20061;-77
2024/01/15 02:13:00;;;;;;;29.50;10.45;;;;;;;-141.50;100.00;63355.56;5077195;28;20045;-79
2024/01/15 02:15:27;;;;;;;30.85;9.93;;;;;;;-141.50;100.00;63355.56;5056919;28;20589;-77
2024/01/15 02:17:59;;;;;;;28.48;9.45;;;;;;;-141.50;100.00;63355.56;5055512;28;20120;-78
2024/01/15 02:20:28;;;;;;;29.40;10.10;;;;;;;-141.50;100.00;63355.56;5041668;28;20060;-78
2024/01/15 02:23:12;;;;;;;27.60;9.32;;;;;;;-141.50;100.00;63355.56;5050526;28;20129;-78
2024/01/15 02:25:44;;;;;;;28.65;9.50;;;;;;;-141.50;100.00;63355.56;5053975;28;20048;-78
2024/01/15 02:28:16;;;;;;;24.83;9.40;;;;;;;-141.50;100.00;63355.56;5028484;28;20042;-78
2024/01/15 02:30:43;;;;;;;30.13;10.57;;;;;;;-141.50;100.00;63355.56;5054270;28;20433;-78
2024/01/15 02:33:13;;;;;;;29.15;9.93;;;;;;;-141.50;100.00;63355.56;5039512;28;20048;-79
2024/01/15 02:35:41;;;;;;;29.55;9.88;;;;;;;-141.50;100.00;63355.56;5055292;28;20053;-78
2024/01/15 02:38:10;;;;;;;25.48;9.05;;;;;;;-141.50;100.00;63355.56;5050774;28;20071;-78
2024/01/15 02:40:45;;;;;;;30.92;10.07;;;;;;;-141.50;100.00;63355.56;5046823;28;20136;-80
2024/01/15 02:43:13;;;;;;;30.67;10.20;;;;;;;-141.50;100.00;63355.56;5049241;28;20068;-78
2024/01/15 02:45:42;;;;;;;26.17;9.70;;;;;;;-141.50;100.00;63355.56;5036458;28;20075;-78
2024/01/15 02:48:11;;;;;;;27.02;9.98;;;;;;;-141.50;100.00;63355.56;5058558;28;20068;-78
2024/01/15 02:50:40;;;;;;;29.73;10.07;;;;;;;-141.50;100.00;63355.56;5058824;28;20515;-78
2024/01/15 02:53:07;;;;;;;25.70;8.88;;;;;;;-141.50;100.00;63355.56;5025724;28;20067;-78
2024/01/15 02:55:34;;;;;;;30.70;10.65;;;;;;;-141.50;100.00;63355.56;5060649;28;20128;-78
2024/01/15 02:58:01;;;;;;;27.33;9.80;;;;;;;-141.50;100.00;63355.56;5042973;28;20128;-76
2024/01/15 03:00:29;;;;;;;32.25;10.88;;;;;;;-141.50;100.00;63355.56;5039187;28;20099;-77
2024/01/15 03:02:56;;;;;;;26.83;8.57;;;;;;;-141.50;100.00;63355.56;5028947;28;20052;-78
2024/01/15 03:05:27;;;;;;;28.88;9.57;;;;;;;-141.50;100.00;63355.56;5042508;28;20083;-78
2024/01/15 03:07:54;;;;;;;27.13;8.90;;;;;;;-141.50;100.00;63355.56;5057776;28;20045;-79
2024/01/15 03:10:20;;;;;;;27.83;8.55;;;;;;;-141.50;100.00;63355.56;5046302;28;20052;-78
2024/01/15 03:12:48;;;;;;;32.72;10.50;;;;;;;-141.50;100.00;63355.56;5039233;28;20069;-79
2024/01/15 03:15:15;;;;;;;26.50;9.32;;;;;;;-141.50;100.00;63355.56;5048985;28;20041;-77
2024/01/15 03:17:44;;;;;;;24.05;9.40;;;;;;;-141.50;100.00;63355.56;5048133;28;20064;-78
2024/01/15 03:20:12;;;;;;;27.42;8.93;;;;;;;-141.50;100.00;63355.56;5070225;28;20049;-77
2024/01/15 03:22:39;;;;;;;27.88;8.60;;;;;;;-141.50;100.00;63355.56;5046963;28;20033;-77
2024/01/15 03:25:10;;;;;;;25.27;9.63;;;;;;;-141.50;100.00;63355.56;5053537;28;20053;-78
2024/01/15 03:27:38;;;;;;;32.30;9.75;;;;;;;-141.50;100.00;63355.56;5038514;28;20065;-78
2024/01/15 03:30:06;;;;;;;32.83;9.90;;;;;;;-141.50;100.00;63355.56;5049213;28;20113;-78
2024/01/15 03:32:33;;;;;;;31.42;10.63;;;;;;;-141.50;100.00;63355.56;5050838;28;20048;-78
2024/01/15 03:35:01;;;;;;;34.67;9.45;;;;;;;-141.50;100.00;63355.56;5058514;28;20067;-78
2024/01/15 03:37:28;;;;;;;29.73;8.90;;;;;;;-141.50;100.00;63355.56;5058035;28;20037;-77
2024/01/15 03:39:56;;;;;;;28.30;9.25;;;;;;;-141.50;100.00;63355.56;5033155;28;20438;-77
2024/01/15 03:42:23;;;;;;;27.45;9.20;;;;;;;-141.50;100.00;63355.56;5038440;28;20044;-78
2024/01/15 03:44:51;;;;;;;30.83;9.23;;;;;;;-141.50;100.00;63355.56;5059437;28;20522;-78
2024/01/15 03:47:20;;;;;;;31.85;10.63;;;;;;;-141.50;100.00;63355.56;5030800;28;20045;-77
2024/01/15 03:49:47;;;;;;;25.75;9.27;;;;;;;-141.50;100.00;63355.56;5058264;28;20037;-79
2024/01/15 03:52:16;;;;;;;28.17;9.65;;;;;;;-141.50;100.00;63355.56;5058481;28;20498;-78
2024/01/15 03:54:46;;;;;;;32.83;9.80;;;;;;;-141.50;100.00;63355.56;5072053;28;20148;-79
2024/01/15 03:57:13;;;;;;;26.65;9.02;;;;;;;-141.50;100.00;63355.56;5055808;28;20159;-77
2024/01/15 03:59:44;;;;;;;26.75;8.55;;;;;;;-141.50;100.00;63355.56;5028235;28;20087;-80
2024/01/15 04:02:12;;;;;;;32.60;9.45;;;;;;;-141.50;100.00;63355.56;5055726;28;20075;-78
2024/01/15 04:04:43;;;;;;;34.67;11.55;;;;;;;-141.50;100.00;63355.56;5037572;28;20037;-80
2024/01/15 04:07:11;;;;;;;33.70;9.80;;;;;;;-141.50;100.00;63355.56;5051868;28;20096;-79
2024/01/15 04:09:41;;;;;;;31.25;9.75;;;;;;;-141.50;100.00;63355.56;5033781;28;20045;-79
2024/01/15 04:12:07;;;;;;;30.08;9.82;;;;;;;-141.50;100.00;63355.56;5038437;28;20065;-79
2024/01/15 04:14:35;;;;;;;30.20;8.68;;;;;;;-141.50;100.00;63355.56;5037216;28;20060;-79
2024/01/15 04:17:03;;;;;;;32.45;10.60;;;;;;;-141.50;100.00;63355.56;5034119;28;20101;-79
2024/01/15 04:19:30;;;;;;;28.25;9.48;;;;;;;-141.50;100.00;63355.56;5048450;28;20045;-78
2024/01/15 04:21:58;;;;;;;27.83;9.70;;;;;;;-141.50;100.00;63355.56;5045233;28;20045;-78
2024/01/15 04:24:25;;;;;;;27.15;8.98;;;;;;;-141.50;100.00;63355.56;5043850;28;20042;-79
2024/01/15 04:26:53;;;;;;;25.00;8.57;;;;;;;-141.50;100.00;63355.56;5044021;28;20064;-79
2024/01/15 04:29:21;;;;;;;27.73;9.32;;;;;;;-141.50;100.00;63355.56;5041987;28;20041;-80
2024/01/15 04:31:47;;;;;;;35.22;9.48;;;;;;;-141.50;100.00;63355.56;5062532;28;20041;-77
2024/01/15 04:34:15;;;;;;;33.88;10.38;;;;;;;-141.50;100.00;63355.56;5050842;28;20041;-78
2024/01/15 04:36:44;;;;;;;30.40;8.75;;;;;;;-141.50;100.00;63355.56;5062795;28;20117;-79
2024/01/15 04:39:11;;;;;;;31.30;9.88;;;;;;;-141.50;100.00;63355.56;5038607;28;20113;-79
2024/01/15 04:41:39;;;;;;;30.15;9.88;;;;;;;-141.50;100.00;63355.56;5052222;28;20531;-79
2024/01/15 04:44:07;;;;;;;27.92;8.90;;;;;;;-141.50;100.00;63355.56;5046600;28;20040;-79
2024/01/15 04:46:34;;;;;;;30.52;9.13;;;;;;;-141.50;100.00;63355.56;5063988;28;20049;-78
2024/01/15 04:49:01;;;;;;;30.25;9.82;;;;;;;-141.50;100.00;63355.56;5062862;28;20053;-78
2024/01/15 04:51:28;;;;;;;29.92;9.40;;;;;;;-141.50;100.00;63355.56;5032577;28;20072;-78
2024/01/15 04:53:55;;;;;;;32.08;9.73;;;;;;;-141.50;100.00;63355.56;5050881;28;20044;-78
2024/01/15 04:56:22;;;;;;;28.77;9.20;;;;;;;-141.50;100.00;63355.56;5022239;28;20520;-79
2024/01/15 04:58:49;;;;;;;29.90;8.85;;;;;;;-141.50;100.00;63355.56;5045944;28;20060;-78
2024/01/15 05:01:17;;;;;;;28.20;8.90;;;;;;;-141.50;100.00;63355.56;5048524;28;20045;-77
2024/01/15 05:03:44;;;;;;;26.95;9.10;;;;;;;-141.50;100.00;63355.56;5045183;28;20025;-76
2024/01/15 05:06:12;;;;;;;28.70;9.23;;;;;;;-141.50;100.00;63355.56;5052108;28;20041;-78
2024/01/15 05:08:42;;;;;;;26.77;9.15;;;;;;;-141.50;100.00;63355.56;5034081;28;20055;-76
2024/01/15 05:11:13;;;;;;;26.27;10.00;;;;;;;-141.50;100.00;63355.56;5025604;28;20025;-75
2024/01/15 05:13:40;;;;;;;24.67;8.45;;;;;;;-141.50;100.00;63355.56;5042158;28;20036;-76
2024/01/15 05:16:08;;;;;;;26.02;8.45;;;;;;;-141.50;100.00;63355.56;5028132;28;20045;-80
2024/01/15 05:18:37;;;;;;;28.27;8.75;;;;;;;-141.50;100.00;63355.56;5042626;28;20039;-83
2024/01/15 05:21:04;;;;;;;28.75;8.75;;;;;;;-141.50;100.00;63355.56;5038672;28;20098;-81
2024/01/15 05:23:31;;;;;;;26.30;8.75;;;;;;;-141.50;100.00;63355.56;5011971;28;20129;-83
2024/01/15 05:26:00;;;;;;;26.63;8.07;;;;;;;-141.50;100.00;63355.56;5019304;28;20154;-78
2024/01/15 05:28:26;;;;;;;25.25;8.77;;;;;;;-141.50;100.00;63355.56;5036713;28;20046;-80
2024/01/15 05:30:59;;;;;;;23.25;7.70;;;;;;;-141.50;100.00;63355.56;5028427;28;20045;-80
2024/01/15 05:33:27;;;;;;;26.95;8.73;;;;;;;-141.50;100.00;63355.56;5018326;28;20096;-79
2024/01/15 05:35:54;;;;;;;29.17;9.00;;;;;;;-141.50;100.00;63355.56;5021285;28;20536;-78
2024/01/15 05:38:24;;;;;;;23.35;7.43;;;;;;;-141.50;100.00;63355.56;5023255;28;20628;-79
2024/01/15 05:40:51;;;;;;;21.42;6.85;;;;;;;-141.50;100.00;63355.56;5013467;28;20049;-78
2024/01/15 05:43:17;;;;;;;21.30;7.88;;;;;;;-141.50;100.00;63355.56;5025478;28;20046;-80
2024/01/15 05:45:50;;;;;;;23.60;7.03;;;;;;;-141.50;100.00;63355.56;5030988;28;20041;-78
2024/01/15 05:48:17;;;;;;;28.08;8.77;;;;;;;-141.50;100.00;63355.56;5042032;28;20044;-79
2024/01/15 05:50:45;;;;;;;24.48;8.18;;;;;;;-141.50;100.00;63355.56;5044546;28;20395;-81
2024/01/15 05:53:20;;;;;;;20.83;7.03;;;;;;;-141.50;100.00;63355.56;5032343;28;20600;-79
2024/01/15 05:55:47;;;;;;;17.40;6.18;;;;;;;-141.50;100.00;63355.56;5049584;28;20074;-78
2024/01/15 05:58:13;;;;;;;20.77;7.40;;;;;;;-141.50;100.00;63355.56;5056678;28;20057;-79
2024/01/15 06:00:46;;;;;;;20.58;6.82;;;;;;;-141.50;100.00;63355.56;5055625;28;20041;-79
2024/01/15 06:03:13;;;;;;;19.83;5.70;;;;;;;-141.50;100.00;63355.56;5017052;28;20041;-80
2024/01/15 06:05:41;;;;;;;20.77;6.70;;;;;;;-141.50;100.00;63355.56;5038456;28;20046;-79
2024/01/15 06:08:09;;;;;;;18.50;6.63;;;;;;;-141.50;100.00;63355.56;5050018;28;20045;-79
2024/01/15 06:10:36;;;;;;;17.02;6.28;;;;;;;-141.50;100.00;63355.56;5046358;28;20657;-75
2024/01/15 06:13:05;;;;;;;20.90;6.32;;;;;;;-141.50;100.00;63355.56;5032891;28;20045;-78
2024/01/15 06:15:33;;;;;;;17.27;6.07;;;;;;;-141.50;100.00;63355.56;5044875;28;20045;-77
2024/01/15 06:18:00;;;;;;;19.60;6.43;;;;;;;-141.50;100.00;63355.56;5038986;28;20058;-78
2024/01/15 06:20:33;;;;;;;21.27;6.95;;;;;;;-141.50;100.00;63355.56;5033783;28;20053;-77
2024/01/15 06:23:00;;;;;;;18.20;6.97;;;;;;;-141.50;100.00;63355.56;5018690;28;20125;-76
2024/01/15 06:25:28;;;;;;;18.02;7.03;;;;;;;-141.50;100.00;63355.56;5045904;28;20063;-78
2024/01/15 06:27:56;;;;;;;17.95;6.47;;;;;;;-141.50;100.00;63355.56;5036930;28;20045;-78
2024/01/15 06:30:30;;;;;;;23.08;7.20;;;;;;;-141.50;100.00;63355.56;5043526;28;20041;-76
2024/01/15 06:32:56;;;;;;;25.42;8.00;;;;;;;-141.50;100.00;63355.56;5036299;28;20137;-79
2024/01/15 06:35:24;;;;;;;19.15;7.07;;;;;;;-141.50;100.00;63355.56;5045669;28;20135;-78
2024/01/15 06:37:51;;;;;;;20.63;7.53;;;;;;;-141.50;100.00;63355.56;5028432;28;20114;-78
2024/01/15 06:40:18;;;;;;;27.85;8.38;;;;;;;-141.50;100.00;63355.56;5048481;28;20550;-78
2024/01/15 06:42:46;;;;;;;23.02;7.47;;;;;;;-141.50;100.00;63355.56;5020710;28;20045;-76
2024/01/15 06:45:13;;;;;;;21.60;6.95;;;;;;;-141.50;100.00;63355.56;5021576;28;20049;-78
2024/01/15 06:47:41;;;;;;;18.73;6.93;;;;;;;-141.50;100.00;63355.56;5046312;28;20045;-78
2024/01/15 06:50:09;;;;;;;27.95;8.15;;;;;;;-141.50;100.00;63355.56;5035918;28;20093;-76
2024/01/15 06:52:36;;;;;;;17.35;7.18;;;;;;;-141.50;100.00;63355.56;5043147;28;20040;-76
2024/01/15 06:55:03;;;;;;;22.52;7.35;;;;;;;-141.50;100.00;63355.56;5040243;28;20067;-76
2024/01/15 06:57:31;;;;;;;20.73;6.60;;;;;;;-141.50;100.00;63355.56;5029512;28;20054;-78
2024/01/15 06:59:58;;;;;;;25.73;7.18;;;;;;;-141.50;100.00;63355.56;5042165;28;20057;-76
2024/01/15 07:02:26;;;;;;;22.23;7.70;;;;;;;-141.50;100.00;63355.56;5043434;28;20597;-78
2024/01/15 07:04:56;;;;;;;24.15;7.95;;;;;;;-141.50;100.00;63355.56;5024065;28;20110;-78
2024/01/15 07:07:24;;;;;;;20.63;7.05;;;;;;;-141.50;100.00;63355.56;5031982;28;20470;-77
2024/01/15 07:09:52;;;;;;;23.25;7.28;;;;;;;-141.50;100.00;63355.56;5026480;28;20146;-78
2024/01/15 07:12:23;;;;;;;19.55;6.78;;;;;;;-141.50;100.00;63355.56;5042926;28;20055;-78
2024/01/15 07:14:50;;;;;;;22.23;7.45;;;;;;;-141.50;100.00;63355.56;5028382;28;20099;-79
2024/01/15 07:17:19;;;;;;;17.55;6.50;;;;;;;-141.50;100.00;63355.56;5042396;28;20050;-77
2024/01/15 07:19:46;;;;;;;24.25;7.82;;;;;;;-141.50;100.00;63355.56;5040916;28;20052;-78
2024/01/15 07:22:15;;;;;;;19.83;6.88;;;;;;;-141.50;100.00;63355.56;5017091;28;20052;-78
2024/01/15 07:24:41;;;;;;;23.73;7.90;;;;;;;-141.50;100.00;63355.56;5046359;28;20419;-77
2024/01/15 07:27:09;;;;;;;21.00;8.07;;;;;;;-141.50;100.00;63355.56;5030827;28;20056;-76
2024/01/15 07:29:38;;;;;;;22.70;8.02;;;;;;;-141.50;100.00;63355.56;5029476;28;20037;-77
2024/01/15 07:32:07;;;;;;;22.77;7.13;;;;;;;-141.50;100.00;63355.56;5038344;28;20063;-77
2024/01/15 07:34:34;;;;;;;21.77;7.82;;;;;;;-141.50;100.00;63355.56;5021765;28;20049;-78
2024/01/15 07:37:06;;;;;;;18.67;6.18;;;;;;;-141.50;100.00;63355.56;5030701;28;20543;-77
2024/01/15 07:39:33;;;;;;;18.80;7.45;;;;;;;-141.50;100.00;63355.56;5044361;28;20056;-78
2024/01/15 07:42:03;;;;;;;20.42;6.47;;;;;;;-141.50;100.00;63355.56;5038295;28;20625;-78
2024/01/15 07:44:30;;;;;;;17.10;6.80;;;;;;;-141.50;100.00;63355.56;5037455;28;20053;-78
2024/01/15 07:46:57;;;;;;;23.85;6.90;;;;;;;-141.50;100.00;63355.56;5034702;28;20057;-77
2024/01/15 07:49:25;;;;;;;22.05;6.65;;;;;;;-141.50;100.00;63355.56;5023548;28;20052;-77
2024/01/15 07:51:52;;;;;;;18.08;7.00;;;;;;;-141.50;100.00;63355.56;5035449;28;20104;-78
2024/01/15 07:54:20;;;;;;;16.42;6.00;;;;;;;-141.50;100.00;63355.56;5050511;28;20070;-77
2024/01/15 07:56:59;;;;;;;28.50;8.07;;;;;;;-141.50;100.00;63355.56;5039274;28;20084;-78
2024/01/15 07:59:26;;;;;;;19.60;6.05;;;;;;;-141.50;100.00;63355.56;5048072;28;20056;-78
2024/01/15 08:01:53;;;;;;;25.15;7.53;;;;;;;-141.50;100.00;63355.56;5042399;28;20049;-78
2024/01/15 08:04:21;;;;;;;20.42;6.15;;;;;;;-141.50;100.00;63355.56;5039162;28;20076;-78
2024/01/15 08:06:50;;;;;;;19.02;7.40;;;;;;;-141.50;100.00;63355.56;5038401;28;20046;-77
2024/01/15 08:09:19;;;;;;;19.10;6.82;;;;;;;-141.50;100.00;63355.56;5026457;28;20104;-76
2024/01/15 08:11:49;;;;;;;15.85;6.00;;;;;;;-141.50;100.00;63355.56;5037045;28;20359;-78
2024/01/15 08:14:16;;;;;;;20.65;6.60;;;;;;;-141.50;100.00;63355.56;5045047;28;20040;-79
2024/01/15 08:16:44;;;;;;;20.45;7.65;;;;;;;-141.50;100.00;63355.56;5042882;28;20042;-78
2024/01/15 08:19:17;;;;;;;21.25;6.85;;;;;;;-141.50;100.00;63355.56;5027948;28;20072;-78
2024/01/15 08:21:44;;;;;;;20.80;6.90;;;;;;;-141.50;100.00;63355.56;5034957;28;20071;-78
2024/01/15 08:24:12;;;;;;;18.98;6.25;;;;;;;-141.50;100.00;63355.56;5028353;28;20052;-78
2024/01/15 08:26:39;;;;;;;23.13;6.88;;;;;;;-141.50;100.00;63355.56;5044745;28;20122;-78
2024/01/15 08:29:06;;;;;;;19.50;7.10;;;;;;;-141.50;100.00;63355.56;5043044;28;20523;-78
2024/01/15 08:31:34;;;;;;;16.70;5.82;;;;;;;-141.50;100.00;63355.56;5043584;28;20049;-78
2024/01/15 08:34:01;;;;;;;14.25;5.93;;;;;;;-141.50;100.00;63355.56;5036028;28;20049;-78
2024/01/15 08:36:34;;;;;;;19.08;6.05;;;;;;;-141.50;100.00;63355.56;5033959;28;20059;-79
2024/01/15 08:39:03;;;;;;;20.48;7.13;;;;;;;-141.50;100.00;63355.56;5029387;28;20049;-76
2024/01/15 08:41:32;;;;;;;16.00;5.60;;;;;;;-141.50;100.00;63355.56;5035409;28;20044;-78
2024/01/15 08:43:59;;;;;;;26.45;7.35;;;;;;;-141.50;100.00;63355.56;5040615;28;20076;-77
2024/01/15 08:46:31;;;;;;;16.63;5.88;;;;;;;-141.50;100.00;63355.56;5038775;28;20096;-78
2024/01/15 08:48:58;;;;;;;18.98;6.43;;;;;;;-141.50;100.00;63355.56;5035825;28;20053;-77
2024/01/15 08:51:29;;;;;;;15.68;6.00;;;;;;;-141.50;100.00;63355.56;5013663;28;20048;-77
2024/01/15 08:53:58;;;;;;;18.08;6.47;;;;;;;-141.50;100.00;63355.56;5038304;28;20053;-77
2024/01/15 08:56:27;;;;;;;14.70;5.90;;;;;;;-141.50;100.00;63355.56;5020386;28;20096;-77
2024/01/15 08:58:57;;;;;;;13.68;5.25;;;;;;;-141.50;100.00;63355.56;5020880;28;20029;-78
2024/01/15 09:01:24;;;;;;;15.88;5.30;;;;;;;-141.50;100.00;63355.56;5050130;28;20061;-76
2024/01/15 09:03:52;;;;;;;22.67;5.80;;;;;;;-141.50;100.00;63355.56;5054478;28;20167;-77
2024/01/15 09:06:20;;;;;;;14.63;5.40;;;;;;;-141.50;100.00;63355.56;5041688;28;20060;-77
2024/01/15 09:08:47;;;;;;;12.65;5.20;;;;;;;-141.50;100.00;63355.56;5062522;28;20676;-77
2024/01/15 09:11:15;;;;;;;17.85;5.78;;;;;;;-141.50;100.00;63355.56;5064039;28;20048;-76
2024/01/15 09:13:44;;;;;;;15.07;5.22;;;;;;;-141.50;100.00;63355.56;5054932;28;20037;-77
2024/01/15 09:16:10;;;;;;;17.15;5.28;;;;;;;-141.50;100.00;63355.56;5038544;28;20433;-77
2024/01/15 09:21:11;;;;;;;20.63;6.13;;;;;;;1.33;100.00;95881.53;5021153;27;20423;-77
2024/01/15 09:23:38;;;;;;;15.82;5.70;;;;;;;1.00;100.00;95878.22;5010676;28;20152;-77
2024/01/15 09:26:08;;;;;;;13.20;5.22;;;;;;;1.06;100.00;95890.31;5024037;28;20084;-79
2024/01/15 09:28:35;;;;;;;14.68;5.00;;;;;;;1.04;100.00;95887.19;5018562;28;20038;-78
2024/01/15 09:31:05;;;;;;;15.30;5.93;;;;;;;1.01;100.00;95881.63;5009831;28;20046;-78
2024/01/15 09:33:36;;;;;;;14.68;5.47;;;;;;;1.02;100.00;95893.88;4995775;28;20053;-77
2024/01/15 09:36:05;;;;;;;15.30;5.18;;;;;;;1.04;100.00;95883.72;4991563;28;20053;-79
2024/01/15 09:38:32;;;;;;;16.02;5.43;;;;;;;1.19;100.00;95883.41;5012526;28;20119;-78
2024/01/15 09:40:59;;;;;;;20.65;6.13;;;;;;;1.12;100.00;95883.81;5013224;28;20049;-78
2024/01/15 09:43:26;;;;;;;19.70;5.65;;;;;;;1.14;100.00;95875.53;5017470;28;20127;-78
2024/01/15 09:45:55;;;;;;;21.27;6.13;;;;;;;1.09;100.00;95884.41;5017505;28;20057;-78
2024/01/15 09:48:29;;;;;;;16.67;5.70;;;;;;;1.22;100.00;95894.28;5015447;28;20076;-78
2024/01/15 09:50:58;;;;;;;18.83;5.80;;;;;;;1.35;100.00;95903.34;4978457;28;20046;-77
2024/01/15 09:53:28;;;;;;;15.07;5.50;;;;;;;1.30;100.00;95889.31;5007080;28;20050;-78
2024/01/15 09:55:58;;;;;;;14.05;5.50;;;;;;;1.36;100.00;95898.78;5007775;28;20504;-77
2024/01/15 09:58:24;;;;;;;17.35;5.25;;;;;;;1.45;100.00;95887.13;5017970;28;22054;-78
2024/01/15 10:00:57;;;;;;;20.10;5.78;;;;;;;1.26;100.00;95889.91;5007569;28;20050;-78
2024/01/15 10:03:25;;;;;;;14.02;4.85;;;;;;;1.29;100.00;95887.75;5022950;28;20052;-79
2024/01/15 10:05:52;;;;;;;19.77;5.60;;;;;;;1.44;100.00;95882.91;5016558;28;20046;-78
2024/01/15 10:08:21;;;;;;;18.92;5.75;;;;;;;1.31;100.00;95885.59;5004964;28;20058;-77
2024/01/15 10:10:49;;;;;;;15.77;5.45;;;;;;;1.61;100.00;95880.38;5013372;28;20042;-78
2024/01/15 10:13:16;;;;;;;19.75;6.25;;;;;;;1.37;100.00;95879.06;5013702;28;20053;-76
2024/01/15 10:15:47;;;;;;;13.68;5.45;;;;;;;1.62;100.00;95865.97;4997283;28;20104;-78
2024/01/15 10:18:14;;;;;;;15.13;5.18;;;;;;;1.43;100.00;95875.97;4996003;28;20056;-77
2024/01/15 10:20:42;;;;;;;14.10;5.15;;;;;;;1.88;100.00;95876.84;5014923;28;20050;-77
2024/01/15 10:23:11;;;;;;;13.65;4.55;;;;;;;1.98;100.00;95865.94;5014966;28;20528;-76
2024/01/15 10:25:38;;;;;;;14.00;5.43;;;;;;;2.20;100.00;95859.78;5019298;28;20056;-78
2024/01/15 10:28:05;;;;;;;10.35;4.30;;;;;;;2.13;100.00;95864.78;4997770;28;20543;-77
2024/01/15 10:30:35;;;;;;;12.57;5.00;;;;;;;1.96;100.00;95854.78;5001398;28;20046;-76
2024/01/15 10:33:04;;;;;;;14.90;4.90;;;;;;;1.85;100.00;95864.91;5004019;28;20108;-75
2024/01/15 10:35:34;;;;;;;15.85;5.18;;;;;;;2.03;100.00;95854.34;4995560;28;20072;-76
2024/01/15 10:38:02;;;;;;;11.27;4.28;;;;;;;2.04;100.00;95850.59;4989739;28;20057;-77
2024/01/15 10:40:30;;;;;;;10.15;3.90;;;;;;;2.12;100.00;95852.50;5011661;28;20052;-76
2024/01/15 10:43:04;;;;;;;12.38;4.50;;;;;;;2.02;100.00;95848.22;5003094;28;20054;-77
2024/01/15 10:45:36;;;;;;;13.75;4.47;;;;;;;1.91;100.00;95867.44;4990487;28;20693;-77
2024/01/15 10:48:06;;;;;;;16.60;5.25;;;;;;;1.79;100.00;95862.63;4994104;28;20085;-76
2024/01/15 10:50:34;;;;;;;11.93;4.50;;;;;;;1.87;100.00;95859.25;4989122;28;20038;-78
2024/01/15 10:53:01;;;;;;;18.20;4.72;;;;;;;1.75;100.00;95861.69;5004073;28;20274;-79
2024/01/15 10:55:32;;;;;;;11.48;4.20;;;;;;;1.96;100.00;95857.44;4998177;28;20054;-77
2024/01/15 10:58:03;;;;;;;11.93;4.22;;;;;;;1.87;100.00;95848.59;4981628;28;20061;-77
2024/01/15 11:00:31;;;;;;;12.70;4.40;;;;;;;1.92;100.00;95845.00;4991736;28;20173;-77
2024/01/15 11:03:02;;;;;;;10.98;4.20;;;;;;;1.98;100.00;95851.81;5007570;28;20549;-78
2024/01/15 11:05:38;;;;;;;;;;;;;;;2.36;100.00;95848.44;4964313;28;20041;-77
2024/01/15 11:08:07;;;;;;;11.70;3.83;;;;;;;2.69;100.00;95838.22;4987852;28;19925;-78
2024/01/15 11:10:46;;;;;;;7.85;3.63;;;;;;;2.82;100.00;95847.22;4987703;28;20065;-78
2024/01/15 11:13:32;;;;;;;10.77;3.75;;;;;;;2.58;100.00;95828.91;4976607;28;20059;-78